Time;durP1;ratioP1;P1;durP2;ratioP2;P2;SDS_P1;SDS_P2;PMS_P1;PMS_P2;Temp;Humidity;BMP_temperature;BMP_pressure;BME280_temperature;BME280_humidity;BME280_pressure;Samples;Min_cycle;Max_cycle;Signal;HPM_P1;HPM_P2
2022/03/24 00:00:39;;;;;;;;;57.25;45.75;;;;;14.43;31.94;102294.09;4957900;28;45297;-67
2022/03/24 00:03:05;;;;;;;;;60.00;45.00;;;;;14.42;32.03;102291.47;4957370;28;46006;-67
2022/03/24 00:05:31;;;;;;;;;61.50;48.75;;;;;14.38;32.23;102287.97;4956554;28;45359;-67
2022/03/24 00:07:57;;;;;;;;;56.25;45.75;;;;;14.36;32.27;102296.78;4956490;28;45283;-67
2022/03/24 00:10:23;;;;;;;;;60.50;47.00;;;;;14.33;32.20;102284.47;4957445;28;45471;-67
2022/03/24 00:12:51;;;;;;;;;57.50;45.75;;;;;14.30;31.75;102293.28;4955862;28;47082;-66
2022/03/24 00:15:17;;;;;;;;;56.50;44.75;;;;;14.27;32.17;102292.44;4957503;28;45261;-67
2022/03/24 00:17:43;;;;;;;;;58.00;45.25;;;;;14.24;31.99;102292.44;4957550;28;45183;-67
2022/03/24 00:20:11;;;;;;;;;58.25;46.00;;;;;14.13;32.43;102273.97;4982629;28;45444;-67
2022/03/24 00:22:36;;;;;;;;;53.00;42.75;;;;;14.16;32.18;102281.03;4990198;27;45998;-67
2022/03/24 00:25:01;;;;;;;;;49.50;41.50;;;;;14.13;32.63;102282.78;4957308;28;45332;-67
2022/03/24 00:27:27;;;;;;;;;50.50;40.50;;;;;14.10;32.53;102285.44;4957258;28;45308;-67
2022/03/24 00:29:52;;;;;;;;;50.50;42.25;;;;;14.08;32.13;102287.22;4956145;28;45438;-67
2022/03/24 00:32:18;;;;;;;;;48.50;38.50;;;;;14.06;32.09;102288.09;4955793;28;46855;-67
2022/03/24 00:34:43;;;;;;;;;49.50;42.50;;;;;14.03;32.48;102288.13;4957357;28;45655;-67
2022/03/24 00:37:09;;;;;;;;;51.00;40.75;;;;;14.00;32.58;102285.50;4957375;28;45384;-67
2022/03/24 00:39:35;;;;;;;;;48.50;40.50;;;;;13.97;32.38;102291.66;4957156;28;45163;-67
2022/03/24 00:42:02;;;;;;;;;51.50;43.50;;;;;13.93;32.54;102289.94;4956160;28;47219;-68
2022/03/24 00:44:28;;;;;;;;;54.25;43.50;;;;;13.92;32.42;102286.41;4960316;28;45232;-68
2022/03/24 00:46:55;;;;;;;;;50.25;41.25;;;;;13.80;32.35;102274.09;4959019;28;45319;-68
2022/03/24 00:49:21;;;;;;;;;51.75;42.00;;;;;13.86;32.77;102291.72;4960147;28;45528;-67
2022/03/24 00:51:48;;;;;;;;;50.25;41.75;;;;;13.85;32.53;102283.78;4978302;28;46168;-68
2022/03/24 00:54:16;;;;;;;;;48.00;37.25;;;;;13.79;32.70;102271.47;4978381;28;45372;-67
2022/03/24 00:56:42;;;;;;;;;55.50;43.75;;;;;13.80;32.47;102283.81;4978467;27;45272;-67
2022/03/24 00:59:09;;;;;;;;;52.00;41.50;;;;;13.76;32.37;102272.38;4979238;28;45280;-68
2022/03/24 01:01:34;;;;;;;;;50.25;40.25;;;;;13.74;32.53;102270.63;4979597;27;45399;-68
2022/03/24 01:04:00;;;;;;;;;55.50;42.50;;;;;13.71;32.53;102274.16;4994529;28;45252;-67
2022/03/24 01:06:26;;;;;;;;;50.25;40.00;;;;;13.67;33.04;102266.22;4979573;28;45247;-68
2022/03/24 01:08:52;;;;;;;;;51.75;40.25;;;;;13.67;32.52;102274.16;4979200;27;45628;-67
2022/03/24 01:11:18;;;;;;;;;48.75;40.00;;;;;13.64;32.77;102270.63;4978014;27;45402;-68
2022/03/24 01:13:44;;;;;;;;;51.75;42.00;;;;;13.62;32.83;102274.16;4979074;28;45446;-68
2022/03/24 01:16:10;;;;;;;;;51.50;41.00;;;;;13.60;32.56;102273.31;4979461;28;45229;-68
2022/03/24 01:18:37;;;;;;;;;51.75;41.00;;;;;13.58;32.99;102272.41;4979320;28;45252;-67
2022/03/24 01:21:07;;;;;;;;;54.50;43.25;;;;;13.53;32.58;102268.91;4971950;28;47312;-68
2022/03/24 01:23:33;;;;;;;;;45.00;39.00;;;;;13.53;32.69;102263.63;4958344;28;45482;-68
2022/03/24 01:26:00;;;;;;;;;49.50;39.25;;;;;13.52;32.78;102273.31;4959838;28;45308;-68
2022/03/24 01:28:27;;;;;;;;;45.75;38.50;;;;;13.47;33.03;102262.75;4958189;28;45279;-67
2022/03/24 01:30:52;;;;;;;;;42.75;35.00;;;;;13.47;32.88;102261.84;4961718;28;46764;-68
2022/03/24 01:33:18;;;;;;;;;48.50;40.75;;;;;13.46;32.96;102268.06;4975773;28;46167;-68
2022/03/24 01:35:44;;;;;;;;;50.00;41.50;;;;;13.44;32.86;102269.81;4974489;28;45288;-68
2022/03/24 01:38:09;;;;;;;;;52.00;40.25;;;;;13.40;33.09;102260.13;4974428;28;46807;-69
2022/03/24 01:40:35;;;;;;;;;46.25;38.25;;;;;13.37;33.02;102257.44;4984674;28;46304;-68
2022/03/24 01:43:00;;;;;;;;;51.50;42.00;;;;;13.37;33.02;102262.72;4972734;28;45312;-67
2022/03/24 01:45:26;;;;;;;;;47.75;39.25;;;;;13.33;33.04;102253.94;4972519;28;45753;-68
2022/03/24 01:47:52;;;;;;;;;49.25;40.25;;;;;13.33;32.76;102267.13;4972189;28;45423;-68
2022/03/24 01:50:18;;;;;;;;;48.25;39.75;;;;;13.30;32.84;102260.09;4973167;28;45922;-68
2022/03/24 01:52:44;;;;;;;;;47.75;40.25;;;;;13.27;33.24;102252.19;4971450;28;45260;-68
2022/03/24 01:55:11;;;;;;;;;50.50;41.50;;;;;13.27;33.25;102257.47;4972696;28;45308;-68
2022/03/24 01:57:36;;;;;;;;;51.00;41.50;;;;;13.25;33.26;102253.09;4969879;28;45453;-67
2022/03/24 02:00:04;;;;;;;;;52.00;40.75;;;;;13.23;33.19;102252.19;4974037;28;47622;-68
2022/03/24 02:02:30;;;;;;;;;49.50;39.75;;;;;13.19;32.98;102250.44;4974413;28;45508;-68
2022/03/24 02:04:55;;;;;;;;;51.00;39.50;;;;;13.18;33.34;102252.19;4972750;28;45471;-68
2022/03/24 02:07:21;;;;;;;;;49.25;39.75;;;;;13.15;33.14;102244.28;4972651;28;45482;-68
2022/03/24 02:09:46;;;;;;;;;51.50;40.75;;;;;13.14;33.12;102247.81;4971277;28;45523;-68
2022/03/24 02:12:13;;;;;;;;;49.75;39.50;;;;;13.11;33.48;102247.81;4970138;28;45265;-68
2022/03/24 02:14:40;;;;;;;;;52.00;40.25;;;;;13.09;33.28;102252.22;4974467;28;45312;-68
2022/03/24 02:17:06;;;;;;;;;48.50;36.25;;;;;13.06;33.43;102247.81;4977263;28;45819;-68
2022/03/24 02:19:34;;;;;;;;;49.25;39.50;;;;;13.04;33.35;102243.41;4972766;28;45354;-68
2022/03/24 02:22:12;;;;;;;;;51.00;42.00;;;;;13.03;33.26;102244.28;4973519;28;45519;-68
2022/03/24 02:24:38;;;;;;;;;51.75;40.75;;;;;12.98;33.54;102244.28;4974227;28;45273;-68
2022/03/24 02:27:04;;;;;;;;;43.75;35.25;;;;;12.98;33.41;102246.91;4973881;28;45417;-68
2022/03/24 02:29:30;;;;;;;;;47.50;38.50;;;;;12.96;33.71;102246.94;4973264;28;45651;-68
2022/03/24 02:31:55;;;;;;;;;51.25;39.75;;;;;12.93;33.61;102249.59;4967517;28;45396;-68
2022/03/24 02:34:47;;;;;;;;;50.00;40.25;;;;;12.91;33.71;102243.41;4957137;28;45726;-67
2022/03/24 02:37:22;;;;;;;;;54.25;41.75;;;;;12.84;33.62;102239.91;4989721;28;45429;-67
2022/03/24 02:39:50;;;;;;;;;45.25;37.50;;;;;12.84;33.58;102244.28;4974704;28;47713;-67
2022/03/24 02:42:18;;;;;;;;;53.00;40.25;;;;;12.84;33.54;102241.66;4972730;28;45954;-67
2022/03/24 02:44:49;;;;;;;;;48.75;39.25;;;;;12.83;33.52;102255.75;4973616;28;45166;-67
2022/03/24 02:47:16;;;;;;;;;50.50;41.00;;;;;12.79;33.69;102243.41;4972580;28;45441;-67
2022/03/24 02:49:43;;;;;;;;;41.75;35.25;;;;;12.78;33.66;102246.91;4969304;28;45833;-67
2022/03/24 02:52:09;;;;;;;;;49.25;41.50;;;;;12.76;33.64;102251.34;4972222;28;45439;-67
2022/03/24 02:54:35;;;;;;;;;52.00;41.50;;;;;12.73;33.71;102243.41;4982214;28;45299;-68
2022/03/24 02:57:01;;;;;;;;;47.75;41.25;;;;;12.71;33.80;102245.19;4973956;28;45404;-68
2022/03/24 02:59:27;;;;;;;;;51.25;41.50;;;;;12.70;33.77;102253.97;4969724;28;45522;-68
2022/03/24 03:01:55;;;;;;;;;49.75;40.00;;;;;12.65;33.88;102249.56;4972600;27;45425;-68
2022/03/24 03:04:22;;;;;;;;;50.25;40.50;;;;;12.63;33.94;102253.94;4970906;28;45530;-68
2022/03/24 03:06:47;;;;;;;;;48.25;39.25;;;;;12.61;33.94;102260.97;4971419;28;46444;-68
2022/03/24 03:09:17;;;;;;;;;47.75;38.50;;;;;12.56;33.90;102246.03;4985128;28;45723;-68
2022/03/24 03:11:46;;;;;;;;;49.75;39.75;;;;;12.55;33.98;102247.78;4977701;28;45272;-68
2022/03/24 03:14:14;;;;;;;;;47.00;39.50;;;;;12.52;33.89;102248.66;4970646;28;45236;-67
2022/03/24 03:16:40;;;;;;;;;52.75;41.75;;;;;12.52;34.14;102253.06;4974351;28;45489;-68
2022/03/24 03:19:08;;;;;;;;;49.25;38.75;;;;;12.50;33.93;102249.53;4969537;28;45449;-68
2022/03/24 03:21:35;;;;;;;;;49.75;39.75;;;;;12.48;34.19;102246.03;4973094;28;45401;-68
2022/03/24 03:24:01;;;;;;;;;48.50;40.00;;;;;12.46;34.15;102253.91;4982329;28;45505;-67
2022/03/24 03:26:27;;;;;;;;;47.50;37.75;;;;;12.44;34.20;102250.41;4969829;28;45728;-68
2022/03/24 03:28:52;;;;;;;;;50.50;41.00;;;;;12.42;34.14;102248.66;4972457;28;46677;-68
2022/03/24 03:31:20;;;;;;;;;47.50;38.75;;;;;12.41;34.30;102252.16;4979464;28;46528;-68
2022/03/24 03:33:45;;;;;;;;;51.50;42.00;;;;;12.37;34.41;102245.13;4970717;28;45500;-68
2022/03/24 03:36:11;;;;;;;;;43.75;36.00;;;;;12.38;34.30;102253.03;4973030;28;45498;-68
2022/03/24 03:38:36;;;;;;;;;54.00;42.50;;;;;12.34;34.11;102248.63;4970605;28;45408;-68
2022/03/24 03:41:02;;;;;;;;;47.50;38.75;;;;;12.35;34.33;102248.63;4971981;28;45465;-68
2022/03/24 03:43:32;;;;;;;;;52.00;41.50;;;;;12.34;34.41;102251.28;4973262;28;45482;-68
2022/03/24 03:45:58;;;;;;;;;50.50;41.00;;;;;12.32;34.19;102247.75;4971691;28;45945;-68
2022/03/24 03:48:23;;;;;;;;;48.25;40.00;;;;;12.31;34.50;102254.78;4970617;28;46341;-69
2022/03/24 03:50:49;;;;;;;;;49.75;41.00;;;;;12.30;34.48;102252.13;4978679;28;45541;-69
2022/03/24 03:53:14;;;;;;;;;53.75;41.75;;;;;12.27;34.39;102253.00;4970032;28;45558;-69
2022/03/24 03:55:40;;;;;;;;;48.25;38.50;;;;;12.27;34.45;102254.75;4972324;28;45529;-69
2022/03/24 03:58:06;;;;;;;;;48.50;38.50;;;;;12.23;34.52;102253.88;4969824;28;45477;-68
2022/03/24 04:03:16;;;;;;;;;49.50;40.00;;;;;12.17;34.61;102244.16;4971648;28;45512;-69
2022/03/24 04:05:43;;;;;;;;;47.00;39.75;;;;;12.16;34.74;102250.34;4968899;28;45312;-68
2022/03/24 04:08:09;;;;;;;;;51.25;40.75;;;;;12.12;34.58;102242.41;4973053;28;46871;-68
2022/03/24 04:10:34;;;;;;;;;54.75;43.50;;;;;12.12;34.64;102247.69;4969669;28;46575;-68
2022/03/24 04:13:00;;;;;;;;;54.25;42.25;;;;;12.07;34.72;102239.75;4977201;28;45482;-68
2022/03/24 04:15:26;;;;;;;;;50.25;40.25;;;;;12.03;34.83;102236.22;4972279;28;45461;-68
2022/03/24 04:17:52;;;;;;;;;51.00;41.00;;;;;12.05;34.89;102238.00;4971939;28;46141;-68
2022/03/24 04:20:20;;;;;;;;;51.75;42.25;;;;;12.02;34.87;102242.38;4973191;28;45834;-69
2022/03/24 04:22:53;;;;;;;;;47.25;37.50;;;;;11.99;35.04;102242.38;4975185;28;45453;-68
2022/03/24 04:25:20;;;;;;;;;53.00;42.00;;;;;11.96;35.10;102245.00;4973315;28;45536;-68
2022/03/24 04:27:49;;;;;;;;;54.50;43.25;;;;;11.91;35.02;102236.16;4975257;28;46373;-69
2022/03/24 04:30:17;;;;;;;;;54.75;43.25;;;;;11.91;35.15;102240.53;4973319;28;46326;-69
2022/03/24 04:32:43;;;;;;;;;53.50;42.50;;;;;11.87;35.25;102244.91;4975187;28;45823;-69
2022/03/24 04:35:10;;;;;;;;;57.50;45.25;;;;;11.83;35.22;102243.16;4987033;28;45507;-69
2022/03/24 04:37:37;;;;;;;;;50.75;42.25;;;;;11.78;35.36;102240.47;4994729;28;45528;-68
2022/03/24 04:40:04;;;;;;;;;55.00;44.25;;;;;11.78;35.39;102244.88;4975138;28;45422;-69
2022/03/24 04:42:29;;;;;;;;;54.75;44.00;;;;;11.75;35.51;102247.47;4975776;28;45398;-67
2022/03/24 04:44:55;;;;;;;;;52.00;40.50;;;;;11.71;35.49;102252.75;4971120;28;45297;-69
2022/03/24 04:47:21;;;;;;;;;54.75;44.50;;;;;11.66;35.55;102240.41;4974762;28;45465;-68
2022/03/24 04:49:46;;;;;;;;;57.25;43.25;;;;;11.65;35.54;102241.31;4974598;28;45879;-68
2022/03/24 04:52:12;;;;;;;;;58.25;45.75;;;;;11.61;35.72;102245.69;4973607;28;45453;-68
2022/03/24 04:54:37;;;;;;;;;55.00;44.00;;;;;11.59;35.72;102243.91;4974753;28;45740;-69
2022/03/24 04:57:03;;;;;;;;;56.75;44.75;;;;;11.55;35.88;102243.88;4972959;28;45489;-68
2022/03/24 04:59:28;;;;;;;;;57.25;43.75;;;;;11.52;35.83;102235.06;4970278;28;45265;-68
2022/03/24 05:01:55;;;;;;;;;56.00;44.50;;;;;11.44;35.78;102228.91;4974846;28;45874;-69
2022/03/24 05:04:21;;;;;;;;;55.00;45.00;;;;;11.48;35.93;102241.19;4972637;28;45535;-69
2022/03/24 05:06:47;;;;;;;;;55.00;43.75;;;;;11.46;35.95;102237.66;4974009;28;46376;-69
2022/03/24 05:09:13;;;;;;;;;63.00;47.75;;;;;11.41;35.85;102239.41;4974352;28;45457;-69
2022/03/24 05:11:38;;;;;;;;;80.00;69.00;;;;;11.42;36.06;102243.78;4972755;28;45337;-69
2022/03/24 05:14:04;;;;;;;;;54.50;43.50;;;;;11.37;35.99;102236.75;4972858;28;45538;-68
2022/03/24 05:16:30;;;;;;;;;52.00;42.00;;;;;11.37;35.96;102234.13;4975589;28;46153;-69
2022/03/24 05:18:55;;;;;;;;;56.75;44.50;;;;;11.32;36.04;102233.22;4970495;28;45243;-69
2022/03/24 05:21:21;;;;;;;;;56.50;44.25;;;;;11.32;36.06;102235.84;4974043;28;45627;-69
2022/03/24 05:23:46;;;;;;;;;54.00;43.75;;;;;11.28;36.17;102234.06;4974765;28;45450;-69
2022/03/24 05:26:12;;;;;;;;;55.50;45.00;;;;;11.26;36.14;102235.81;4972904;28;46465;-69
2022/03/24 05:28:37;;;;;;;;;52.50;43.25;;;;;11.23;36.33;102238.41;4972534;28;45493;-69
2022/03/24 05:31:03;;;;;;;;;53.75;42.25;;;;;11.24;36.25;102237.53;4972480;28;45763;-69
2022/03/24 05:33:28;;;;;;;;;53.25;42.75;;;;;11.18;36.21;102240.13;4973626;28;45923;-69
2022/03/24 05:35:54;;;;;;;;;52.50;41.00;;;;;11.19;36.41;102241.88;4975087;28;45459;-69
2022/03/24 05:38:19;;;;;;;;;51.75;41.25;;;;;11.14;36.33;102238.34;4972082;28;46557;-68
2022/03/24 05:40:45;;;;;;;;;56.75;43.75;;;;;11.13;36.50;102245.38;4973942;28;45337;-69
2022/03/24 05:43:10;;;;;;;;;51.50;41.50;;;;;11.12;36.52;102243.59;4976080;28;45485;-69
2022/03/24 05:45:36;;;;;;;;;53.25;43.75;;;;;11.11;36.39;102251.50;4973143;28;45449;-69
2022/03/24 05:48:01;;;;;;;;;55.25;43.75;;;;;11.10;36.70;102249.72;4971120;28;45438;-69
2022/03/24 05:50:29;;;;;;;;;56.00;45.00;;;;;11.06;36.43;102248.81;4974789;28;45507;-69
2022/03/24 05:52:55;;;;;;;;;49.00;41.50;;;;;11.03;36.59;102246.16;4971393;28;45661;-68
2022/03/24 05:55:23;;;;;;;;;51.75;41.00;;;;;11.03;36.70;102249.69;4973221;28;47064;-67
2022/03/24 05:57:51;;;;;;;;;46.75;39.00;;;;;11.03;36.79;102249.69;4971765;28;45586;-66
2022/03/24 06:00:17;;;;;;;;;55.00;45.00;;;;;11.02;36.86;102255.78;4972946;28;45438;-66
2022/03/24 06:02:43;;;;;;;;;55.50;43.00;;;;;11.01;36.73;102259.28;4973735;28;45434;-66
2022/03/24 06:05:11;;;;;;;;;50.50;41.75;;;;;11.01;36.96;102258.44;4971952;28;45901;-66
2022/03/24 06:07:37;;;;;;;;;57.00;44.00;;;;;10.97;36.94;102256.63;4971017;28;45419;-67
2022/03/24 06:10:02;;;;;;;;;49.75;42.00;;;;;10.98;36.87;102255.75;4974374;28;45576;-62
2022/03/24 06:12:28;;;;;;;;;56.25;45.25;;;;;10.99;37.00;102263.69;4971446;28;45500;-65
2022/03/24 06:14:53;;;;;;;;;53.00;42.75;;;;;10.98;37.05;102264.53;4973762;28;45895;-67
2022/03/24 06:17:20;;;;;;;;;53.25;42.50;;;;;10.97;37.11;102265.41;4971518;28;45369;-68
2022/03/24 06:19:47;;;;;;;;;128.75;112.00;;;;;10.97;36.91;102265.41;4972188;28;45781;-68
2022/03/24 06:22:13;;;;;;;;;58.00;45.75;;;;;10.98;37.04;102261.00;4972327;28;45481;-68
2022/03/24 06:24:39;;;;;;;;;52.00;43.50;;;;;10.97;37.21;102262.78;4972540;28;46007;-70
2022/03/24 06:27:04;;;;;;;;;56.75;44.50;;;;;10.98;37.21;102261.00;4969393;28;45466;-68
2022/03/24 06:29:30;;;;;;;;;55.50;41.50;;;;;10.98;37.21;102255.75;4973689;28;45541;-62
2022/03/24 06:31:55;;;;;;;;;54.50;42.50;;;;;10.98;37.42;102259.28;4971401;28;45818;-68
2022/03/24 06:34:21;;;;;;;;;50.75;40.50;;;;;11.00;36.93;102256.66;4973158;28;47928;-69
2022/03/24 06:36:46;;;;;;;;;49.25;39.25;;;;;11.00;37.21;102262.78;4968428;28;45632;-69
2022/03/24 06:39:11;;;;;;;;;47.00;37.25;;;;;11.01;37.08;102261.91;4959932;28;45877;-61
2022/03/24 06:41:37;;;;;;;;;51.25;42.00;;;;;11.02;37.20;102263.69;4968744;28;45525;-65
2022/03/24 06:44:06;;;;;;;;;49.50;39.25;;;;;11.03;36.99;102261.94;4975300;28;47877;-61
2022/03/24 06:46:32;;;;;;;;;48.25;41.25;;;;;11.03;37.26;102260.19;4964288;28;45371;-61
2022/03/24 06:48:58;;;;;;;;;54.50;43.50;;;;;11.07;37.28;102263.75;4968005;28;45462;-65
2022/03/24 06:51:23;;;;;;;;;52.25;42.75;;;;;11.07;37.16;102266.38;4971239;28;45335;-54
2022/03/24 06:53:49;;;;;;;;;53.25;40.75;;;;;11.10;37.22;102269.00;4967156;28;46091;-67
2022/03/24 06:56:14;;;;;;;;;55.00;43.25;;;;;11.11;37.23;102273.41;4964728;28;45764;-70
2022/03/24 06:58:43;;;;;;;;;54.75;41.00;;;;;11.14;37.33;102273.41;4968234;28;45216;-59
2022/03/24 07:01:10;;;;;;;;;56.25;44.00;;;;;11.15;37.18;102271.69;4971623;28;45225;-59
2022/03/24 07:03:36;;;;;;;;;52.50;43.25;;;;;11.16;37.38;102271.69;4959683;28;45739;-58
2022/03/24 07:06:01;;;;;;;;;52.75;41.75;;;;;11.18;37.33;102274.31;4968300;28;45511;-62
2022/03/24 07:08:27;;;;;;;;;51.75;40.25;;;;;11.22;37.21;102276.13;4964039;28;45436;-59
2022/03/24 07:10:52;;;;;;;;;51.00;42.25;;;;;11.24;37.44;102277.00;4968210;28;45596;-67
2022/03/24 07:13:18;;;;;;;;;43.50;36.25;;;;;11.25;37.34;102272.66;4970614;28;45546;-62
2022/03/24 07:15:44;;;;;;;;;55.50;44.00;;;;;11.30;37.53;102279.69;4965553;28;45470;-70
2022/03/24 07:18:10;;;;;;;;;51.00;41.25;;;;;11.32;37.55;102277.97;4974546;28;45591;-66
2022/03/24 07:20:36;;;;;;;;;46.50;40.00;;;;;11.36;37.52;102279.72;4966097;28;45566;-64
2022/03/24 07:23:03;;;;;;;;;54.75;44.00;;;;;11.41;37.41;102282.41;4975324;28;45446;-64
2022/03/24 07:25:30;;;;;;;;;57.25;45.00;;;;;11.44;37.46;102277.16;4980981;28;45438;-64
2022/03/24 07:27:57;;;;;;;;;53.50;43.25;;;;;11.49;37.48;102283.31;4976869;28;45376;-66
2022/03/24 07:30:23;;;;;;;;;50.00;42.00;;;;;11.53;37.38;102276.34;4984904;28;45365;-67
2022/03/24 07:32:48;;;;;;;;;55.50;43.25;;;;;11.57;37.37;102280.72;4973300;28;45281;-59
2022/03/24 07:35:14;;;;;;;;;51.00;36.25;;;;;11.61;37.45;102279.00;4957941;28;45469;-67
2022/03/24 07:37:44;;;;;;;;;52.50;42.25;;;;;11.66;37.49;102288.72;4967547;28;45291;-65
2022/03/24 07:40:10;;;;;;;;;54.00;41.75;;;;;11.70;37.38;102285.22;4976111;27;45351;-65
2022/03/24 07:42:37;;;;;;;;;54.00;43.50;;;;;11.74;37.50;102285.25;4978135;28;46198;-64
2022/03/24 07:45:04;;;;;;;;;56.25;44.00;;;;;11.81;37.49;102290.56;4960778;28;45292;-65
2022/03/24 07:47:30;;;;;;;;;49.75;40.50;;;;;11.85;37.47;102294.97;4958162;28;45316;-65
2022/03/24 07:49:56;;;;;;;;;52.25;42.00;;;;;11.80;37.68;102282.66;4957674;28;45441;-66
2022/03/24 07:52:26;;;;;;;;;52.50;43.00;;;;;11.94;37.48;102293.25;4957633;28;47740;-65
2022/03/24 07:55:00;;;;;;;;;54.00;42.25;;;;;12.01;37.55;102305.59;4959255;28;45816;-64
2022/03/24 07:57:31;;;;;;;;;52.25;40.00;;;;;12.08;37.41;102307.41;4960636;28;45506;-65
2022/03/24 07:59:58;;;;;;;;;50.50;40.25;;;;;12.13;37.30;102304.78;4967935;28;45455;-66
2022/03/24 08:02:24;;;;;;;;;49.75;40.75;;;;;12.19;37.25;102307.44;4961719;28;45644;-65
2022/03/24 08:04:49;;;;;;;;;48.25;40.00;;;;;12.25;37.39;102309.22;4971724;27;45391;-66
2022/03/24 08:07:15;;;;;;;;;50.00;40.00;;;;;12.30;37.46;102307.47;4960806;28;45444;-66
2022/03/24 08:09:40;;;;;;;;;49.25;40.00;;;;;12.32;37.34;102298.69;4960471;28;45504;-66
2022/03/24 08:12:07;;;;;;;;;51.00;40.00;;;;;12.43;37.20;102308.41;4960381;28;46274;-65
2022/03/24 08:14:33;;;;;;;;;46.25;36.50;;;;;12.45;37.22;102302.28;4960562;28;45335;-66
2022/03/24 08:16:58;;;;;;;;;48.00;39.00;;;;;12.54;37.26;102311.06;4959352;28;45258;-66
2022/03/24 08:19:23;;;;;;;;;50.75;39.50;;;;;12.58;37.10;102299.63;4960527;28;45316;-65
2022/03/24 08:21:49;;;;;;;;;46.50;37.75;;;;;12.66;37.22;102309.31;4993831;28;47497;-66
2022/03/24 08:24:14;;;;;;;;;49.00;39.00;;;;;12.73;37.28;102309.34;4960429;28;45470;-66
2022/03/24 08:26:40;;;;;;;;;50.25;39.50;;;;;12.71;37.10;102296.16;4963920;28;45666;-66
2022/03/24 08:29:06;;;;;;;;;49.75;39.25;;;;;12.88;37.21;102311.13;4971660;28;45176;-66
2022/03/24 08:31:33;;;;;;;;;51.50;43.25;;;;;12.94;36.87;102317.31;4966865;28;46482;-66
2022/03/24 08:33:58;;;;;;;;;52.00;41.75;;;;;13.03;37.25;102312.91;4967887;28;45441;-65
2022/03/24 08:36:25;;;;;;;;;41.00;35.75;;;;;13.07;37.14;102310.28;4960404;28;45204;-65
2022/03/24 08:38:50;;;;;;;;;44.75;36.75;;;;;13.18;37.09;102320.81;4977500;28;45288;-64
2022/03/24 08:41:16;;;;;;;;;47.50;39.75;;;;;13.25;36.89;102319.94;4979901;28;45392;-65
2022/03/24 08:43:42;;;;;;;;;48.50;40.50;;;;;13.32;36.80;102311.16;4979314;27;45296;-64
2022/03/24 08:46:09;;;;;;;;;46.75;38.25;;;;;13.41;36.64;102320.84;4980159;28;45330;-65
2022/03/24 08:48:35;;;;;;;;;49.75;40.75;;;;;13.49;37.12;102319.06;4979649;28;45707;-64
2022/03/24 08:51:01;;;;;;;;;47.50;37.50;;;;;13.51;36.98;102308.53;4978350;28;47277;-64
2022/03/24 08:53:26;;;;;;;;;48.50;38.00;;;;;13.67;36.63;102322.56;4978296;27;45259;-64
2022/03/24 08:55:51;;;;;;;;;47.50;38.75;;;;;13.77;36.91;102320.78;4979782;28;45220;-64
2022/03/24 08:58:18;;;;;;;;;49.25;39.00;;;;;13.86;36.28;102319.88;4979236;28;45459;-65
2022/03/24 09:00:47;;;;;;;;;58.50;43.75;;;;;13.95;36.51;102311.94;4978193;28;47078;-64
2022/03/24 09:03:13;;;;;;;;;48.25;39.00;;;;;14.02;36.50;102311.03;4979277;28;45265;-65
2022/03/24 09:05:39;;;;;;;;;46.75;38.50;;;;;14.15;36.41;102311.88;4979693;28;45256;-65
2022/03/24 09:08:04;;;;;;;;;46.50;36.75;;;;;14.26;36.72;102318.00;4979328;28;45265;-64
2022/03/24 09:10:32;;;;;;;;;48.25;40.00;;;;;14.39;36.73;102317.91;4979150;28;45247;-64
2022/03/24 09:12:58;;;;;;;;;49.00;38.25;;;;;14.48;36.63;102317.88;4978936;28;45249;-64
2022/03/24 09:15:23;;;;;;;;;49.50;39.50;;;;;14.63;36.34;102327.50;4978246;28;45367;-65
2022/03/24 09:17:49;;;;;;;;;53.25;41.25;;;;;14.75;36.55;102324.81;4977866;28;45932;-65
2022/03/24 09:20:18;;;;;;;;;52.00;41.75;;;;;14.92;36.29;102326.47;4979242;28;45576;-65
2022/03/24 09:22:45;;;;;;;;;50.50;39.25;;;;;15.06;36.62;102318.41;4979084;28;45285;-65
2022/03/24 09:25:12;;;;;;;;;49.50;40.50;;;;;15.20;36.20;102316.53;4979176;28;45225;-66
2022/03/24 09:27:38;;;;;;;;;51.25;39.25;;;;;15.41;36.33;102326.06;4978826;28;45548;-65
2022/03/24 09:30:07;;;;;;;;;51.25;40.75;;;;;15.57;36.24;102321.50;4979007;28;45663;-65
2022/03/24 09:32:34;;;;;;;;;54.25;40.25;;;;;15.74;36.18;102323.94;5005454;28;45389;-67
2022/03/24 09:34:59;;;;;;;;;50.50;40.25;;;;;15.90;36.05;102326.50;4959955;28;45301;-66
2022/03/24 09:37:25;;;;;;;;;49.50;39.50;;;;;16.08;35.91;102322.75;4965201;28;45179;-65
2022/03/24 09:39:51;;;;;;;;;46.75;39.50;;;;;16.24;35.99;102324.28;4978690;28;45342;-65
2022/03/24 09:42:17;;;;;;;;;44.25;36.25;;;;;16.40;35.81;102329.41;4978586;28;45311;-66
2022/03/24 09:44:44;;;;;;;;;49.00;37.00;;;;;16.55;35.67;102315.94;4979234;28;45284;-66
2022/03/24 09:47:12;;;;;;;;;54.25;41.75;;;;;16.72;35.63;102325.44;4979003;27;45514;-65
2022/03/24 09:49:39;;;;;;;;;49.75;39.25;;;;;16.87;35.62;102319.00;4978752;28;45562;-65
2022/03/24 09:52:05;;;;;;;;;44.00;36.00;;;;;17.06;35.75;102314.31;4977680;28;45365;-66
2022/03/24 09:54:31;;;;;;;;;43.25;37.25;;;;;17.27;35.66;102321.03;4979156;28;45285;-66
2022/03/24 09:57:02;;;;;;;;;51.25;42.00;;;;;17.51;35.76;102317.06;4977451;28;45489;-66
2022/03/24 09:59:27;;;;;;;;;51.50;38.25;;;;;17.80;35.88;102312.13;4978512;27;45485;-66
2022/03/24 10:01:55;;;;;;;;;45.50;36.50;;;;;18.07;35.75;102309.84;4978895;28;45429;-66
2022/03/24 10:04:21;;;;;;;;;45.50;34.50;;;;;18.33;35.64;102310.13;4977342;28;45505;-66
2022/03/24 10:07:02;;;;;;;;;45.00;37.00;;;;;18.60;35.34;102301.56;4978656;28;45241;-66
2022/03/24 10:09:44;;;;;;;;;47.00;37.00;;;;;18.82;35.27;102308.13;4976965;28;48192;-65
2022/03/24 10:12:23;;;;;;;;;45.50;34.50;;;;;18.97;35.21;102300.75;4978479;27;45234;-67
2022/03/24 10:15:07;;;;;;;;;41.75;35.25;;;;;19.15;35.22;102302.91;4978250;28;45319;-67
2022/03/24 10:17:36;;;;;;;;;47.25;36.25;;;;;19.29;34.73;102302.56;4977310;28;45560;-67
2022/03/24 10:20:15;;;;;;;;;39.50;34.00;;;;;19.42;35.25;102294.25;4978548;28;46049;-67
2022/03/24 10:22:59;;;;;;;;;39.75;33.00;;;;;19.58;35.14;102295.56;4978641;28;45426;-67
2022/03/24 10:25:33;;;;;;;;;49.00;39.00;;;;;19.72;34.53;102296.97;4978507;28;45402;-67
2022/03/24 10:28:12;;;;;;;;;49.25;37.50;;;;;19.85;34.95;102289.53;4978568;28;45474;-67
2022/03/24 10:30:46;;;;;;;;;46.00;37.75;;;;;19.99;34.94;102284.69;4978332;28;46459;-66
2022/03/24 10:33:24;;;;;;;;;49.00;38.75;;;;;20.13;34.75;102290.47;4996039;28;45348;-66
2022/03/24 10:35:50;;;;;;;;;43.50;36.50;;;;;20.24;34.43;102274.16;4959223;28;45198;-65
2022/03/24 10:38:30;;;;;;;;;42.00;35.50;;;;;20.41;34.14;102278.09;4971440;28;45740;-65
2022/03/24 10:40:55;;;;;;;;;41.25;32.75;;;;;20.57;34.33;102281.16;4977276;28;46228;-66
2022/03/24 10:43:24;;;;;;;;;44.50;34.50;;;;;20.73;34.06;102281.56;4978211;28;45310;-65
2022/03/24 10:45:49;;;;;;;;;50.75;37.25;;;;;20.89;34.13;102282.81;4977206;28;45266;-65
2022/03/24 10:48:21;;;;;;;;;42.75;33.75;;;;;21.03;34.46;102276.09;4978278;28;45343;-65
2022/03/24 10:50:46;;;;;;;;;36.00;32.75;;;;;21.22;34.21;102274.56;4976954;28;47514;-66
2022/03/24 10:53:19;;;;;;;;;47.50;36.75;;;;;21.41;34.07;102279.28;4978168;28;45503;-66
2022/03/24 10:55:45;;;;;;;;;45.25;34.75;;;;;21.63;33.70;102274.03;4977069;28;45355;-66
2022/03/24 10:58:39;;;;;;;;;43.50;33.50;;;;;21.89;33.76;102274.88;4976663;28;45347;-66
2022/03/24 11:01:15;;;;;;;;;40.50;33.25;;;;;22.23;34.04;102276.25;4977980;28;46300;-65
2022/03/24 11:03:41;;;;;;;;;40.75;33.75;;;;;22.54;33.94;102267.00;4976901;28;45890;-65
2022/03/24 11:06:13;;;;;;;;;45.75;36.25;;;;;22.88;33.99;102276.38;4978059;28;45315;-65
2022/03/24 11:08:44;;;;;;;;;39.50;31.50;;;;;23.26;34.11;102260.47;4976898;28;45260;-65
2022/03/24 11:11:16;;;;;;;;;36.25;32.25;;;;;23.70;34.12;102273.69;4977726;28;45252;-65